Time;durP1;ratioP1;P1;durP2;ratioP2;P2;SDS_P1;SDS_P2;PMS_P1;PMS_P2;Temp;Humidity;BMP_temperature;BMP_pressure;BME280_temperature;BME280_humidity;BME280_pressure;Samples;Min_cycle;Max_cycle;Signal;HPM_P1;HPM_P2
2022/01/22 00:02:06;;;;;;;11.82;1.17;;;22.20;99.90;;;;;;5029891;28;20022;-65
2022/01/22 00:04:34;;;;;;;6.25;1.00;;;22.20;99.90;;;;;;5022976;28;20221;-65
2022/01/22 00:07:04;;;;;;;6.72;0.60;;;22.60;99.90;;;;;;5020070;28;20029;-65
2022/01/22 00:09:38;;;;;;;8.15;1.23;;;22.60;99.90;;;;;;5016510;28;20036;-65
2022/01/22 00:12:10;;;;;;;5.18;0.73;;;22.60;99.90;;;;;;5013029;28;20041;-65
2022/01/22 00:14:39;;;;;;;5.05;0.73;;;22.50;99.90;;;;;;5023616;28;20030;-65
2022/01/22 00:17:06;;;;;;;5.88;0.98;;;22.50;99.90;;;;;;5031129;28;20112;-65
2022/01/22 00:19:33;;;;;;;3.47;0.63;;;22.50;99.90;;;;;;5029330;28;20025;-65
2022/01/22 00:22:01;;;;;;;5.85;0.70;;;22.60;99.90;;;;;;5016051;28;20041;-65
2022/01/22 00:24:36;;;;;;;8.65;1.42;;;22.60;99.90;;;;;;5019837;28;20049;-65
2022/01/22 00:27:04;;;;;;;7.70;0.60;;;22.60;99.90;;;;;;5025058;28;20018;-65
2022/01/22 00:29:32;;;;;;;9.45;1.02;;;22.50;99.90;;;;;;5028506;28;20037;-65
2022/01/22 00:31:59;;;;;;;7.47;0.90;;;22.40;99.90;;;;;;5025272;28;20022;-65
2022/01/22 00:34:26;;;;;;;2.95;0.73;;;22.30;99.90;;;;;;5026977;28;20018;-65
2022/01/22 00:36:54;;;;;;;3.20;0.70;;;22.30;99.90;;;;;;5026466;28;20030;-65
2022/01/22 00:39:21;;;;;;;4.68;0.63;;;22.30;99.90;;;;;;5031548;28;20088;-65
2022/01/22 00:41:48;;;;;;;7.45;0.90;;;22.30;99.90;;;;;;5016975;28;20026;-65
2022/01/22 00:44:15;;;;;;;6.43;0.60;;;22.40;99.90;;;;;;5015932;28;20032;-65
2022/01/22 00:46:43;;;;;;;6.82;0.98;;;22.50;99.90;;;;;;5031346;28;20104;-65
2022/01/22 00:49:10;;;;;;;3.42;0.65;;;22.80;99.90;;;;;;5027773;28;20022;-64
2022/01/22 00:51:37;;;;;;;4.35;0.70;;;23.00;99.90;;;;;;5019960;28;20022;-65
2022/01/22 00:54:05;;;;;;;6.72;0.80;;;22.90;99.90;;;;;;5020203;28;20038;-64
2022/01/22 00:56:32;;;;;;;5.95;0.98;;;22.70;99.90;;;;;;5026584;28;20079;-64
2022/01/22 00:58:59;;;;;;;7.18;1.35;;;22.50;99.90;;;;;;5020708;28;20084;-64
2022/01/22 01:01:28;;;;;;;4.22;0.70;;;22.50;99.90;;;;;;5019171;28;20517;-65
2022/01/22 01:04:01;;;;;;;4.93;1.02;;;22.40;99.90;;;;;;5026302;28;20120;-65
2022/01/22 01:06:29;;;;;;;3.45;0.80;;;22.30;99.90;;;;;;5025618;28;20025;-65
2022/01/22 01:08:59;;;;;;;5.65;0.50;;;22.20;99.90;;;;;;5015739;28;20032;-65
2022/01/22 01:11:28;;;;;;;4.13;0.90;;;22.20;99.90;;;;;;5030209;28;20041;-65
2022/01/22 01:13:59;;;;;;;5.32;1.15;;;22.30;99.90;;;;;;5019837;28;20045;-65
2022/01/22 01:35:29;;;;;;;15.57;3.35;;;24.40;99.90;;;;;;5026731;28;20075;-66
2022/01/22 01:38:00;;;;;;;4.50;0.50;;;25.10;99.90;;;;;;5031269;28;20037;-66
2022/01/22 01:40:29;;;;;;;33.33;13.60;;;25.10;99.90;;;;;;5017540;28;20502;-67
2022/01/22 01:45:27;;;;;;;6.00;0.63;;;25.50;99.90;;;;;;5020443;28;20037;-66
2022/01/22 01:48:02;;;;;;;7.25;1.00;;;25.30;99.90;;;;;;5017403;28;20482;-66
2022/01/22 01:50:32;;;;;;;4.38;0.75;;;24.70;99.90;;;;;;5017909;28;20037;-66
2022/01/22 01:53:14;;;;;;;4.00;0.70;;;24.20;99.90;;;;;;5017946;28;20029;-66
2022/01/22 01:58:26;;;;;;;4.70;0.95;;;23.80;99.90;;;;;;5019023;28;20045;-66
2022/01/22 02:00:53;;;;;;;4.90;1.02;;;23.70;99.90;;;;;;5026259;28;20466;-66
2022/01/22 02:03:21;;;;;;;5.70;1.05;;;23.90;99.90;;;;;;5015040;28;20022;-66
2022/01/22 02:05:48;;;;;;;5.40;1.38;;;23.80;99.90;;;;;;5025726;28;20065;-66
2022/01/22 02:08:17;;;;;;;7.00;1.20;;;23.60;99.90;;;;;;5026671;28;20432;-66
2022/01/22 02:10:54;;;;;;;6.75;0.80;;;23.60;99.90;;;;;;5021597;28;20483;-66
2022/01/22 02:13:44;;;;;;;5.07;0.80;;;23.70;99.90;;;;;;5023974;28;20006;-66
2022/01/22 02:24:57;;;;;;;6.00;1.05;;;23.10;99.90;;;;;;5014302;28;20044;-65
2022/01/22 02:27:24;;;;;;;10.98;1.30;;;23.60;99.90;;;;;;5015292;28;20401;-65
2022/01/22 02:29:52;;;;;;;4.47;0.57;;;23.60;99.90;;;;;;5020357;28;20026;-65
2022/01/22 02:34:58;;;;;;;3.88;0.52;;;23.40;99.90;;;;;;5028606;28;20034;-65
2022/01/22 02:37:32;;;;;;;6.47;0.68;;;24.10;99.90;;;;;;5012438;28;20042;-66
2022/01/22 02:40:06;;;;;;;6.88;1.05;;;24.70;99.90;;;;;;5016966;28;20026;-66
2022/01/22 02:42:35;;;;;;;4.25;0.95;;;24.50;99.90;;;;;;5022796;28;20036;-66
2022/01/22 02:45:08;;;;;;;9.18;1.95;;;24.70;99.90;;;;;;5030731;28;20033;-66
2022/01/22 02:47:35;;;;;;;8.50;1.02;;;24.40;99.90;;;;;;5013282;28;20061;-66
2022/01/22 02:50:07;;;;;;;8.52;1.17;;;24.00;99.90;;;;;;5015070;28;20024;-66
2022/01/22 02:52:35;;;;;;;5.88;1.17;;;23.60;99.90;;;;;;5021885;28;20021;-66
2022/01/22 02:55:05;;;;;;;6.82;1.13;;;23.20;99.90;;;;;;5029150;28;20021;-66
2022/01/22 02:57:34;;;;;;;4.93;1.27;;;22.90;99.90;;;;;;5023418;28;20030;-66
2022/01/22 03:00:03;;;;;;;10.80;2.22;;;23.00;99.90;;;;;;5019284;28;20079;-66
2022/01/22 03:02:31;;;;;;;4.60;1.00;;;23.40;99.90;;;;;;5026983;28;20108;-66
2022/01/22 03:05:00;;;;;;;5.53;1.45;;;24.30;99.90;;;;;;5024367;28;20034;-66
2022/01/22 03:07:31;;;;;;;6.82;0.77;;;24.90;99.90;;;;;;5011270;28;20030;-66
2022/01/22 03:10:02;;;;;;;7.03;0.68;;;24.50;99.90;;;;;;5013795;28;20505;-66
2022/01/22 03:17:53;;;;;;;6.45;1.45;;;23.30;99.90;;;;;;5023020;28;20043;-66
2022/01/22 03:28:01;;;;;;;12.73;0.88;;;24.00;99.90;;;;;;5017516;28;20087;-66
2022/01/22 03:30:29;;;;;;;5.65;0.70;;;24.40;99.90;;;;;;5023049;28;21099;-66
2022/01/22 03:32:59;;;;;;;4.88;0.52;;;24.70;99.90;;;;;;5025911;28;20385;-66
2022/01/22 03:35:33;;;;;;;6.47;1.98;;;24.90;99.90;;;;;;5018810;28;20041;-66
2022/01/22 03:38:00;;;;;;;5.15;0.90;;;25.00;99.90;;;;;;5014663;28;20049;-66
2022/01/22 03:40:29;;;;;;;5.95;1.83;;;25.10;99.90;;;;;;5022525;28;20034;-66
2022/01/22 03:42:57;;;;;;;4.15;0.43;;;24.90;99.90;;;;;;5028757;28;20053;-66
2022/01/22 03:45:25;;;;;;;5.50;0.77;;;24.70;99.90;;;;;;5026945;28;20088;-65
2022/01/22 03:47:52;;;;;;;4.78;0.75;;;24.70;99.90;;;;;;5032269;28;20054;-66
2022/01/22 03:50:20;;;;;;;7.18;1.10;;;24.70;99.90;;;;;;5028377;28;20032;-65
2022/01/22 03:52:49;;;;;;;5.38;0.70;;;24.80;99.90;;;;;;5019561;28;20125;-66
2022/01/22 03:55:34;;;;;;;3.20;0.40;;;25.00;99.90;;;;;;5023114;28;20030;-66
2022/01/22 03:58:02;;;;;;;5.10;0.68;;;24.90;99.90;;;;;;5037147;28;20037;-66
2022/01/22 04:00:29;;;;;;;3.88;0.60;;;24.80;99.90;;;;;;5029986;28;20030;-66
2022/01/22 04:05:27;;;;;;;5.25;0.50;;;24.40;99.90;;;;;;5020127;28;20461;-66
2022/01/22 04:10:23;;;;;;;5.78;0.90;;;24.80;99.90;;;;;;5025620;28;20072;-66
2022/01/22 04:12:59;;;;;;;9.52;1.15;;;24.60;99.90;;;;;;5026164;28;20028;-66
2022/01/22 04:15:29;;;;;;;6.35;0.55;;;24.70;99.90;;;;;;5030711;28;20517;-66
2022/01/22 04:28:43;;;;;;;3.70;0.68;;;24.90;99.90;;;;;;5021840;28;20103;-66
2022/01/22 04:31:10;;;;;;;3.15;0.40;;;24.90;99.90;;;;;;5032638;28;20024;-65
2022/01/22 04:33:37;;;;;;;4.15;0.77;;;24.60;99.90;;;;;;5026308;28;20040;-66
2022/01/22 04:36:05;;;;;;;4.18;0.60;;;24.60;99.90;;;;;;5017515;28;20030;-66
2022/01/22 04:38:32;;;;;;;4.30;0.88;;;24.70;99.90;;;;;;5033591;28;20037;-67
2022/01/22 04:41:00;;;;;;;3.50;1.17;;;24.70;99.90;;;;;;5026205;28;20034;-67
2022/01/22 04:43:30;;;;;;;11.20;1.42;;;24.60;99.90;;;;;;5018299;28;20080;-67
2022/01/22 04:46:18;;;;;;;7.03;0.65;;;24.60;99.90;;;;;;5020359;28;20429;-64
2022/01/22 04:49:12;;;;;;;6.63;0.55;;;24.40;99.90;;;;;;5015381;28;20058;-64
2022/01/22 04:57:04;;;;;;;4.93;0.70;;;24.10;99.90;;;;;;5018665;28;20065;-64
2022/01/22 04:59:32;;;;;;;8.77;2.25;;;24.00;99.90;;;;;;5029503;28;20037;-66
2022/01/22 05:01:59;;;;;;;3.72;0.40;;;23.90;99.90;;;;;;5014134;28;20419;-65
2022/01/22 05:04:27;;;;;;;8.18;0.90;;;23.80;99.90;;;;;;5022326;28;20029;-65
2022/01/22 05:06:54;;;;;;;7.53;0.70;;;23.60;99.90;;;;;;5032270;28;20106;-64
2022/01/22 05:09:21;;;;;;;5.35;0.60;;;23.60;99.90;;;;;;5029153;28;20462;-65
2022/01/22 05:11:49;;;;;;;3.58;0.40;;;23.50;99.90;;;;;;5016789;28;20711;-65
2022/01/22 05:14:16;;;;;;;5.80;0.60;;;23.50;99.90;;;;;;5018199;28;20148;-66
2022/01/22 05:16:43;;;;;;;7.18;1.05;;;23.50;99.90;;;;;;5019260;28;20036;-65
2022/01/22 05:19:16;;;;;;;9.40;1.52;;;23.50;99.90;;;;;;5026093;28;20038;-66
2022/01/22 05:21:45;;;;;;;6.68;1.23;;;23.40;99.90;;;;;;5028108;28;20034;-66
2022/01/22 05:24:17;;;;;;;4.97;1.05;;;23.50;99.90;;;;;;5028192;28;20053;-66
2022/01/22 05:27:10;;;;;;;6.13;1.08;;;23.40;99.90;;;;;;5027334;28;20449;-66
2022/01/22 05:29:59;;;;;;;5.30;0.50;;;23.40;99.90;;;;;;5023947;28;20099;-66
2022/01/22 05:37:31;;;;;;;8.13;1.10;;;23.40;99.90;;;;;;5028141;28;20041;-67
2022/01/22 05:39:59;;;;;;;5.38;0.63;;;23.20;99.90;;;;;;5019687;28;20033;-66
2022/01/22 05:42:26;;;;;;;6.90;1.17;;;23.20;99.90;;;;;;5023847;28;20041;-65
2022/01/22 05:44:54;;;;;;;9.13;0.55;;;23.20;99.90;;;;;;5023525;28;20079;-66
2022/01/22 05:47:25;;;;;;;7.63;0.73;;;23.10;99.90;;;;;;5022043;28;20054;-66
2022/01/22 05:49:53;;;;;;;3.08;0.77;;;23.20;99.90;;;;;;5025522;28;20151;-66
2022/01/22 05:52:31;;;;;;;8.43;1.00;;;23.40;99.90;;;;;;5027665;28;20135;-66
2022/01/22 06:00:15;;;;;;;4.75;0.50;;;23.90;99.90;;;;;;5025897;28;20044;-65
2022/01/22 06:02:42;;;;;;;3.83;0.43;;;23.80;99.90;;;;;;5016119;28;20054;-65
2022/01/22 06:05:10;;;;;;;3.72;0.50;;;23.90;99.90;;;;;;5014574;28;20076;-65
2022/01/22 06:07:37;;;;;;;5.45;0.90;;;23.90;99.90;;;;;;5014600;28;20057;-65
2022/01/22 06:10:27;;;;;;;6.00;1.50;;;24.20;99.90;;;;;;5019994;28;20025;-65
2022/01/22 06:13:15;;;;;;;7.38;0.80;;;24.50;99.90;;;;;;5029165;28;20045;-65
2022/01/22 06:15:44;;;;;;;9.52;1.05;;;24.60;99.90;;;;;;5019727;28;20084;-65
2022/01/22 06:18:11;;;;;;;6.95;0.80;;;24.40;99.90;;;;;;5027065;28;20045;-65
2022/01/22 06:20:39;;;;;;;6.72;1.02;;;24.10;99.90;;;;;;5014681;28;20073;-64
2022/01/22 06:23:07;;;;;;;6.00;1.00;;;24.10;99.90;;;;;;5016702;28;20032;-65
2022/01/22 06:25:34;;;;;;;3.60;0.95;;;24.10;99.90;;;;;;5026289;28;20025;-66
2022/01/22 06:28:01;;;;;;;3.63;0.68;;;24.10;99.90;;;;;;5026207;28;20493;-65
2022/01/22 06:30:29;;;;;;;10.13;1.73;;;24.20;99.90;;;;;;5025635;28;20032;-65
2022/01/22 06:32:56;;;;;;;7.20;1.38;;;24.40;99.90;;;;;;5033501;28;20040;-65
2022/01/22 06:35:23;;;;;;;9.95;1.02;;;24.40;99.90;;;;;;5023716;28;20037;-65
2022/01/22 06:37:51;;;;;;;9.55;1.45;;;24.10;99.90;;;;;;5016425;28;20037;-65
2022/01/22 06:42:46;;;;;;;3.72;0.70;;;25.20;99.90;;;;;;5028464;28;20030;-65
2022/01/22 06:45:13;;;;;;;3.80;0.80;;;25.50;99.90;;;;;;5017766;28;20033;-65
2022/01/22 06:47:41;;;;;;;5.95;0.60;;;25.30;99.90;;;;;;5028379;28;20046;-65
2022/01/22 06:50:09;;;;;;;5.57;1.08;;;24.60;99.90;;;;;;5016798;28;20045;-65
2022/01/22 06:52:39;;;;;;;6.82;1.65;;;24.20;99.90;;;;;;5026342;28;20095;-65
2022/01/22 06:55:07;;;;;;;4.13;1.48;;;23.40;99.90;;;;;;5026596;28;20052;-64
2022/01/22 06:57:34;;;;;;;4.10;1.08;;;22.90;99.90;;;;;;5013900;28;20057;-64
2022/01/22 07:00:03;;;;;;;14.75;3.53;;;22.80;99.90;;;;;;5023697;28;20021;-65
2022/01/22 07:02:30;;;;;;;6.22;1.45;;;22.80;99.90;;;;;;5028492;28;20398;-64
2022/01/22 07:04:58;;;;;;;6.97;1.48;;;22.70;99.90;;;;;;5024302;28;20030;-66
2022/01/22 07:07:25;;;;;;;9.68;1.90;;;22.70;99.90;;;;;;5022506;28;20017;-65
2022/01/22 07:09:52;;;;;;;5.47;0.95;;;22.70;99.90;;;;;;5020487;28;20113;-65
2022/01/22 07:12:20;;;;;;;6.00;1.15;;;22.70;99.90;;;;;;5018494;28;20021;-64
2022/01/22 07:14:49;;;;;;;7.85;0.88;;;22.50;99.90;;;;;;5014228;28;20109;-65
2022/01/22 07:17:17;;;;;;;9.38;1.70;;;22.30;99.90;;;;;;5016703;28;20105;-66
2022/01/22 07:19:44;;;;;;;6.93;1.92;;;22.30;99.90;;;;;;5023975;28;20071;-66
2022/01/22 07:24:58;;;;;;;9.60;2.03;;;22.50;99.90;;;;;;5027399;28;20057;-65
2022/01/22 07:27:25;;;;;;;7.18;2.05;;;22.80;99.90;;;;;;5026846;28;20030;-66
2022/01/22 07:29:52;;;;;;;8.63;1.63;;;23.10;99.90;;;;;;5027101;28;20041;-66
2022/01/22 07:32:34;;;;;;;10.45;1.20;;;23.00;99.90;;;;;;5026882;28;20029;-66
2022/01/22 07:35:03;;;;;;;6.57;1.52;;;23.10;99.90;;;;;;5031756;28;20026;-66
2022/01/22 07:37:30;;;;;;;8.95;2.28;;;23.00;99.90;;;;;;5016876;28;20037;-66
2022/01/22 07:39:58;;;;;;;8.07;1.92;;;23.00;99.90;;;;;;5024843;28;20155;-66
2022/01/22 07:42:25;;;;;;;5.95;1.10;;;22.90;99.90;;;;;;5033131;28;20040;-66
2022/01/22 07:44:53;;;;;;;7.03;2.05;;;22.80;99.90;;;;;;5031147;28;20029;-66
2022/01/22 07:47:20;;;;;;;8.77;2.40;;;23.30;99.90;;;;;;5023324;28;20041;-66
2022/01/22 07:49:47;;;;;;;9.45;1.65;;;23.80;99.90;;;;;;5017914;28;20032;-67
2022/01/22 07:52:14;;;;;;;6.68;2.50;;;23.00;99.90;;;;;;5024861;28;20102;-67
2022/01/22 07:54:42;;;;;;;5.50;2.13;;;22.80;99.90;;;;;;5032172;28;20026;-66
2022/01/22 07:57:09;;;;;;;11.98;1.83;;;22.80;99.90;;;;;;5015882;28;20022;-66
2022/01/22 07:59:36;;;;;;;8.32;2.38;;;22.70;99.90;;;;;;5019527;28;20022;-66
2022/01/22 08:02:05;;;;;;;9.88;2.22;;;22.80;99.90;;;;;;5012325;28;20032;-66
2022/01/22 08:04:34;;;;;;;6.25;1.63;;;22.80;99.90;;;;;;5012257;28;20072;-66
2022/01/22 08:07:04;;;;;;;6.35;1.17;;;22.70;99.90;;;;;;5012354;28;20030;-66
2022/01/22 08:09:32;;;;;;;12.38;2.55;;;22.50;99.90;;;;;;5020793;28;20029;-66
2022/01/22 08:12:00;;;;;;;8.93;2.50;;;22.40;99.90;;;;;;5028816;28;20058;-66
2022/01/22 08:14:27;;;;;;;7.05;1.30;;;22.40;99.90;;;;;;5012232;28;20426;-67
2022/01/22 08:16:54;;;;;;;5.18;0.82;;;22.30;99.90;;;;;;5017523;28;20132;-67
2022/01/22 08:19:23;;;;;;;6.97;1.33;;;22.20;99.90;;;;;;5031619;28;20033;-66
2022/01/22 08:21:50;;;;;;;5.75;1.50;;;22.20;99.90;;;;;;5022712;28;20029;-66
2022/01/22 08:24:21;;;;;;;5.45;1.55;;;22.10;99.90;;;;;;5012960;28;20060;-66
2022/01/22 08:27:04;;;;;;;7.95;1.73;;;22.10;99.90;;;;;;5025912;28;20022;-67
2022/01/22 08:29:32;;;;;;;4.97;1.23;;;22.10;99.90;;;;;;5015840;28;20034;-66
2022/01/22 08:37:30;;;;;;;7.03;2.00;;;21.80;99.90;;;;;;5022995;28;20087;-66
2022/01/22 08:39:57;;;;;;;9.48;3.85;;;21.80;99.90;;;;;;5015987;28;20034;-66
2022/01/22 08:42:25;;;;;;;10.45;3.15;;;21.80;99.90;;;;;;5020762;28;20108;-66
2022/01/22 08:44:52;;;;;;;7.78;2.47;;;21.70;99.90;;;;;;5029960;28;20022;-66
2022/01/22 08:47:20;;;;;;;5.90;2.08;;;21.60;99.90;;;;;;5021748;28;20054;-66
2022/01/22 08:49:48;;;;;;;8.20;2.63;;;21.50;99.90;;;;;;5019219;28;20482;-66
2022/01/22 08:52:16;;;;;;;5.55;1.73;;;21.50;99.90;;;;;;5035578;28;20362;-66
2022/01/22 08:54:47;;;;;;;8.52;3.20;;;21.40;99.90;;;;;;5024171;28;20037;-66
2022/01/22 08:57:14;;;;;;;6.05;1.75;;;21.50;99.90;;;;;;5015344;28;20029;-66
2022/01/22 08:59:42;;;;;;;8.70;1.85;;;21.40;99.90;;;;;;5028240;28;20045;-67
2022/01/22 09:02:09;;;;;;;8.88;2.60;;;21.40;99.90;;;;;;5035290;28;20394;-66
2022/01/22 09:04:36;;;;;;;6.47;1.70;;;21.30;99.90;;;;;;5023383;28;20079;-67
2022/01/22 09:07:04;;;;;;;8.15;3.35;;;21.30;99.90;;;;;;5021310;28;20501;-66
2022/01/22 09:09:31;;;;;;;14.15;4.32;;;21.30;99.90;;;;;;5033374;28;20029;-67
2022/01/22 09:11:59;;;;;;;7.97;2.13;;;21.30;99.90;;;;;;5026652;28;20034;-67
2022/01/22 09:14:26;;;;;;;9.23;2.30;;;21.30;99.90;;;;;;5023144;28;20438;-67
2022/01/22 09:16:53;;;;;;;8.60;2.47;;;21.30;99.90;;;;;;5035028;28;20032;-67
2022/01/22 09:19:23;;;;;;;7.35;1.65;;;21.20;99.90;;;;;;5025046;28;20087;-67
2022/01/22 09:21:52;;;;;;;6.18;1.85;;;21.20;99.90;;;;;;5014344;28;20021;-66
2022/01/22 09:24:20;;;;;;;6.85;1.77;;;21.20;99.90;;;;;;5021799;28;20022;-67
2022/01/22 09:26:47;;;;;;;9.05;2.40;;;21.10;99.90;;;;;;5027087;28;20026;-67
2022/01/22 09:29:15;;;;;;;9.07;2.00;;;21.10;99.90;;;;;;5024780;28;20038;-67
2022/01/22 09:31:44;;;;;;;10.27;1.40;;;21.10;99.90;;;;;;5033790;28;20029;-67
2022/01/22 09:34:11;;;;;;;9.00;2.00;;;21.10;99.90;;;;;;5032613;28;20022;-67
2022/01/22 09:36:39;;;;;;;10.82;2.60;;;21.10;99.90;;;;;;5032776;28;20112;-67
2022/01/22 09:39:06;;;;;;;7.60;2.35;;;21.10;99.90;;;;;;5034512;28;20041;-67
2022/01/22 09:41:34;;;;;;;6.55;2.05;;;21.10;99.90;;;;;;5033828;28;20041;-67
2022/01/22 09:44:01;;;;;;;8.38;1.80;;;21.20;99.90;;;;;;5025507;28;20108;-67
2022/01/22 09:46:30;;;;;;;6.18;1.65;;;21.10;99.90;;;;;;5017659;28;20367;-66
2022/01/22 09:48:57;;;;;;;6.28;1.63;;;21.10;99.90;;;;;;5034113;28;20064;-67
2022/01/22 09:51:25;;;;;;;10.93;1.95;;;21.10;99.90;;;;;;5020524;28;20033;-66
2022/01/22 09:53:53;;;;;;;6.10;1.33;;;21.20;99.90;;;;;;5014783;28;20025;-66
2022/01/22 09:56:22;;;;;;;7.13;1.33;;;21.10;99.90;;;;;;5016484;28;20102;-67
2022/01/22 09:58:50;;;;;;;5.38;1.05;;;21.10;99.90;;;;;;5033811;28;20029;-67
2022/01/22 10:01:28;;;;;;;4.97;1.92;;;21.10;99.90;;;;;;5027497;28;20501;-67
2022/01/22 10:04:01;;;;;;;5.22;1.75;;;21.10;99.90;;;;;;5014625;28;20049;-66
2022/01/22 10:06:33;;;;;;;6.40;1.73;;;21.10;99.90;;;;;;5020487;28;20029;-67
2022/01/22 10:09:13;;;;;;;8.40;2.60;;;21.10;99.90;;;;;;5012975;28;20088;-66
2022/01/22 10:11:41;;;;;;;9.02;2.20;;;21.10;99.90;;;;;;5013012;28;20037;-66
2022/01/22 10:14:09;;;;;;;7.88;1.70;;;21.10;99.90;;;;;;5014239;28;20168;-66
2022/01/22 10:16:39;;;;;;;7.43;3.47;;;21.10;99.90;;;;;;5012965;28;20495;-66
2022/01/22 10:19:29;;;;;;;8.95;3.00;;;21.10;99.90;;;;;;5019485;28;20390;-66
2022/01/22 10:21:59;;;;;;;10.30;3.20;;;21.10;99.90;;;;;;5017951;28;20069;-65
2022/01/22 10:24:41;;;;;;;10.05;2.97;;;21.00;99.90;;;;;;5013960;28;20022;-65
2022/01/22 10:27:22;;;;;;;7.75;1.60;;;21.00;99.90;;;;;;5033882;28;20394;-65
2022/01/22 10:29:55;;;;;;;9.55;3.50;;;21.00;99.90;;;;;;5032237;28;20026;-65
2022/01/22 10:32:41;;;;;;;11.88;2.30;;;21.00;99.90;;;;;;5032957;28;20478;-66
2022/01/22 10:35:17;;;;;;;5.10;1.25;;;21.00;99.90;;;;;;5026311;28;20021;-66
2022/01/22 10:37:45;;;;;;;7.30;1.73;;;21.00;99.90;;;;;;5017500;28;20470;-65
2022/01/22 10:40:28;;;;;;;10.00;3.33;;;21.00;99.90;;;;;;5020625;28;20100;-66
2022/01/22 10:43:19;;;;;;;8.57;2.90;;;21.00;99.90;;;;;;5014939;28;20026;-66
2022/01/22 10:46:33;;;;;;;17.60;3.42;;;21.00;99.90;;;;;;5023377;28;20026;-66
2022/01/22 10:49:02;;;;;;;6.07;2.28;;;21.00;99.90;;;;;;5015771;28;20049;-66
2022/01/22 10:51:32;;;;;;;10.13;2.70;;;21.00;99.90;;;;;;5024336;28;20022;-66
2022/01/22 10:54:02;;;;;;;7.43;1.88;;;21.00;99.90;;;;;;5018934;28;20045;-66
2022/01/22 10:56:33;;;;;;;9.55;2.58;;;21.00;99.90;;;;;;5019206;28;20040;-66
2022/01/22 10:59:11;;;;;;;8.18;1.75;;;20.90;99.90;;;;;;5017761;28;20140;-67
2022/01/22 11:01:59;;;;;;;5.68;1.35;;;20.90;99.90;;;;;;5019106;28;20026;-67
2022/01/22 11:04:41;;;;;;;7.32;1.23;;;20.90;99.90;;;;;;5017486;28;20524;-66
2022/01/22 11:07:15;;;;;;;8.57;1.25;;;20.90;99.90;;;;;;5025118;28;20079;-66
2022/01/22 11:09:43;;;;;;;6.97;1.30;;;20.80;99.90;;;;;;5020308;28;20486;-66
2022/01/22 11:12:11;;;;;;;7.63;1.40;;;20.80;99.90;;;;;;5018838;28;20036;-66
2022/01/22 11:14:39;;;;;;;7.35;1.10;;;20.80;99.90;;;;;;5014338;28;20045;-66
2022/01/22 11:17:07;;;;;;;9.98;2.58;;;20.80;99.90;;;;;;5021439;28;20037;-67
2022/01/22 11:19:37;;;;;;;7.72;1.42;;;20.80;99.90;;;;;;5025415;28;20050;-67
2022/01/22 11:22:14;;;;;;;7.95;1.52;;;20.80;99.90;;;;;;5020235;28;20076;-66
2022/01/22 11:24:48;;;;;;;10.10;1.05;;;20.80;99.90;;;;;;5016209;28;20034;-66
2022/01/22 11:27:21;;;;;;;13.18;1.75;;;20.80;99.90;;;;;;5021020;28;20370;-66
2022/01/22 11:29:56;;;;;;;7.75;1.13;;;20.80;99.90;;;;;;5022759;28;20505;-66
2022/01/22 11:32:52;;;;;;;7.25;1.33;;;20.80;99.90;;;;;;5016197;28;20073;-67
2022/01/22 11:35:28;;;;;;;9.20;1.63;;;20.80;99.90;;;;;;5025454;28;20091;-66
2022/01/22 11:38:42;;;;;;;4.03;0.82;;;20.90;99.90;;;;;;5025549;28;20029;-66
2022/01/22 11:41:20;;;;;;;10.48;1.60;;;20.90;99.90;;;;;;5018185;28;20041;-66
2022/01/22 11:44:04;;;;;;;8.32;1.40;;;20.90;99.90;;;;;;5013859;28;20108;-66
2022/01/22 11:46:37;;;;;;;7.00;1.10;;;20.90;99.90;;;;;;5011888;28;20033;-66
2022/01/22 11:49:27;;;;;;;6.85;1.52;;;20.90;99.90;;;;;;5024273;28;20099;-66
2022/01/22 11:52:14;;;;;;;6.45;1.35;;;20.90;99.90;;;;;;5017215;28;20113;-66
2022/01/22 11:55:07;;;;;;;7.25;1.52;;;20.90;99.90;;;;;;5030829;28;20100;-66
2022/01/22 11:57:35;;;;;;;10.18;1.38;;;20.90;99.90;;;;;;5014734;28;20495;-66
2022/01/22 12:00:25;;;;;;;7.30;1.23;;;20.90;99.90;;;;;;5028897;28;20358;-66
2022/01/22 12:03:07;;;;;;;4.25;1.30;;;20.90;99.90;;;;;;5012800;28;20521;-67
2022/01/22 12:05:54;;;;;;;8.57;1.25;;;20.90;99.90;;;;;;5024398;28;20032;-66
2022/01/22 12:08:22;;;;;;;8.10;1.10;;;20.90;99.90;;;;;;5016962;28;20025;-66
2022/01/22 12:16:48;;;;;;;5.97;1.33;;;21.00;99.90;;;;;;5016555;28;20122;-66
2022/01/22 12:20:31;;;;;;;4.55;1.05;;;21.00;99.90;;;;;;5026910;28;20046;-66
2022/01/22 12:22:35;;;;;;;7.63;1.10;;;21.00;99.90;;;;;;5029039;28;20029;-66
2022/01/22 12:25:22;;;;;;;7.30;1.57;;;21.00;99.90;;;;;;5032928;28;20270;-65
2022/01/22 12:27:54;;;;;;;5.47;0.82;;;21.00;99.90;;;;;;5032356;28;20045;-66
2022/01/22 12:30:45;;;;;;;3.30;0.73;;;20.90;99.90;;;;;;5030733;28;20032;-65
2022/01/22 12:33:29;;;;;;;5.82;0.70;;;20.80;99.90;;;;;;5034823;28;20075;-66
2022/01/22 12:36:03;;;;;;;4.30;0.73;;;20.70;99.90;;;;;;5022686;28;20057;-65
2022/01/22 12:38:38;;;;;;;4.00;0.70;;;20.60;99.90;;;;;;5018442;28;20044;-66
2022/01/22 12:41:29;;;;;;;5.15;0.80;;;20.60;99.90;;;;;;5025507;28;20025;-66
2022/01/22 12:46:49;;;;;;;5.28;0.60;;;20.60;99.90;;;;;;5016383;28;20040;-66
2022/01/22 12:49:19;;;;;;;3.90;0.65;;;20.60;99.90;;;;;;5027758;28;20026;-66
2022/01/22 12:51:53;;;;;;;3.67;0.63;;;20.60;99.90;;;;;;5019996;28;20498;-66
2022/01/22 12:54:32;;;;;;;2.72;0.65;;;20.60;99.90;;;;;;5018896;28;20068;-66
2022/01/22 12:57:10;;;;;;;1.80;0.43;;;20.60;99.90;;;;;;5030070;28;20041;-66
2022/01/22 13:00:13;;;;;;;5.10;1.33;;;20.60;99.90;;;;;;5032586;28;20031;-66
2022/01/22 13:02:44;;;;;;;5.07;0.65;;;20.60;99.90;;;;;;5021801;28;20033;-66
2022/01/22 13:05:14;;;;;;;4.35;1.17;;;20.60;99.90;;;;;;5020416;28;20033;-67
2022/01/22 13:07:53;;;;;;;2.95;0.50;;;20.60;99.90;;;;;;5016567;28;20033;-67
2022/01/22 13:10:26;;;;;;;4.88;1.52;;;20.60;99.90;;;;;;5024913;28;20022;-67
2022/01/22 13:12:55;;;;;;;10.75;0.98;;;20.60;99.90;;;;;;5016390;28;20022;-67
2022/01/22 13:15:24;;;;;;;3.72;0.60;;;20.60;99.90;;;;;;5023666;28;20018;-67
2022/01/22 13:17:59;;;;;;;5.13;0.80;;;20.60;99.90;;;;;;5017961;28;20042;-67
2022/01/22 13:20:29;;;;;;;4.05;0.45;;;20.60;99.90;;;;;;5024306;28;20096;-67
2022/01/22 13:22:58;;;;;;;7.30;1.10;;;20.50;99.90;;;;;;5015450;28;20021;-67
2022/01/22 13:25:25;;;;;;;6.47;0.60;;;20.50;99.90;;;;;;5025457;28;20029;-67
2022/01/22 13:28:06;;;;;;;6.13;0.60;;;20.50;99.90;;;;;;5015058;28;20044;-67
2022/01/22 13:30:41;;;;;;;7.70;1.10;;;20.50;99.90;;;;;;5017081;28;20021;-67
2022/01/22 13:33:20;;;;;;;4.68;0.68;;;20.50;99.90;;;;;;5034255;28;20501;-67
2022/01/22 13:36:07;;;;;;;8.50;0.93;;;20.50;99.90;;;;;;5029351;28;20029;-67
2022/01/22 13:49:42;;;;;;;2.15;0.73;;;20.50;99.90;;;;;;5017509;28;20048;-66
2022/01/22 13:52:10;;;;;;;;;;;20.40;99.90;;;;;;5019941;28;20029;-67
2022/01/22 13:54:45;;;;;;;5.68;1.02;;;20.40;99.90;;;;;;5015569;28;19940;-67
2022/01/22 13:57:16;;;;;;;4.07;0.40;;;20.40;99.90;;;;;;5030728;28;20501;-66
2022/01/22 13:59:48;;;;;;;3.53;0.52;;;20.40;99.90;;;;;;5019647;28;20044;-67
2022/01/22 14:03:02;;;;;;;6.13;0.80;;;20.30;99.90;;;;;;5032110;28;20033;-67
2022/01/22 14:05:28;;;;;;;2.75;0.63;;;20.40;99.90;;;;;;5015607;28;20041;-67
2022/01/22 14:08:08;;;;;;;2.28;0.45;;;20.40;99.90;;;;;;5017270;28;20029;-67
2022/01/22 14:10:36;;;;;;;2.60;0.60;;;20.30;99.90;;;;;;5030862;28;20382;-67
2022/01/22 14:13:10;;;;;;;2.95;0.43;;;20.30;99.90;;;;;;5020832;28;20056;-67
2022/01/22 14:15:46;;;;;;;3.80;0.93;;;20.30;99.90;;;;;;5028698;28;20025;-67
2022/01/22 14:18:19;;;;;;;2.30;0.28;;;20.20;99.90;;;;;;5019952;28;20590;-67
2022/01/22 14:21:19;;;;;;;1.40;0.30;;;20.20;99.90;;;;;;5014378;28;20033;-67
2022/01/22 14:23:50;;;;;;;4.30;0.40;;;20.20;99.90;;;;;;5024004;28;20025;-67
2022/01/22 14:26:28;;;;;;;3.75;0.77;;;20.20;99.90;;;;;;5032438;28;20092;-67
2022/01/22 14:29:12;;;;;;;3.55;0.75;;;20.20;99.90;;;;;;5014218;28;20045;-67
2022/01/22 14:31:47;;;;;;;4.38;0.68;;;20.20;99.90;;;;;;5024549;28;20087;-67
2022/01/22 14:34:42;;;;;;;5.78;0.50;;;20.20;99.90;;;;;;5028291;28;20037;-66
2022/01/22 14:37:24;;;;;;;6.43;0.70;;;20.10;99.90;;;;;;5028863;28;20037;-67
2022/01/22 14:45:33;;;;;;;3.45;0.40;;;20.00;99.90;;;;;;5031332;28;20072;-65
2022/01/22 14:48:03;;;;;;;2.38;0.32;;;20.00;99.90;;;;;;5028704;28;20091;-65
2022/01/22 14:50:32;;;;;;;3.13;0.50;;;19.90;99.90;;;;;;5023431;28;20036;-64
2022/01/22 14:53:01;;;;;;;3.90;0.50;;;19.70;99.90;;;;;;5017274;28;20045;-67
2022/01/22 14:55:29;;;;;;;5.22;0.60;;;19.60;99.90;;;;;;5016300;28;20026;-67
2022/01/22 14:57:57;;;;;;;1.85;0.45;;;19.60;99.90;;;;;;5032463;28;20045;-67
2022/01/22 15:00:24;;;;;;;4.72;1.15;;;19.50;99.90;;;;;;5015474;28;20032;-67
2022/01/22 15:02:52;;;;;;;2.45;0.30;;;19.40;99.90;;;;;;5018735;28;20061;-67
2022/01/22 15:05:19;;;;;;;3.50;0.45;;;19.40;99.90;;;;;;5017371;28;20073;-67
2022/01/22 15:07:47;;;;;;;2.47;0.38;;;19.40;99.90;;;;;;5013707;28;20025;-67